sensor_id;sensor_type;location;lat;lon;timestamp;temperature;humidity
61641;HTU21D;62201;49.966;8.342;2023-05-10T00:00:04;13.34;118.99
61641;HTU21D;62201;49.966;8.342;2023-05-10T00:02:31;13.36;118.99
61641;HTU21D;62201;49.966;8.342;2023-05-10T00:04:56;13.34;118.99
61641;HTU21D;62201;49.966;8.342;2023-05-10T00:07:21;13.33;118.99
61641;HTU21D;62201;49.966;8.342;2023-05-10T00:09:47;13.31;118.99
61641;HTU21D;62201;49.966;8.342;2023-05-10T00:12:12;13.29;118.99
61641;HTU21D;62201;49.966;8.342;2023-05-10T00:14:38;13.30;118.99
61641;HTU21D;62201;49.966;8.342;2023-05-10T00:17:03;13.32;118.99
61641;HTU21D;62201;49.966;8.342;2023-05-10T00:19:28;13.25;118.99
61641;HTU21D;62201;49.966;8.342;2023-05-10T00:21:54;13.26;118.99
61641;HTU21D;62201;49.966;8.342;2023-05-10T00:24:19;13.24;118.99
61641;HTU21D;62201;49.966;8.342;2023-05-10T00:26:44;13.21;118.99
61641;HTU21D;62201;49.966;8.342;2023-05-10T00:29:10;13.20;118.99
61641;HTU21D;62201;49.966;8.342;2023-05-10T00:31:35;13.18;118.99
61641;HTU21D;62201;49.966;8.342;2023-05-10T00:34:01;13.21;118.99
61641;HTU21D;62201;49.966;8.342;2023-05-10T00:36:26;13.24;118.99
61641;HTU21D;62201;49.966;8.342;2023-05-10T00:38:53;13.22;118.99
61641;HTU21D;62201;49.966;8.342;2023-05-10T00:41:18;13.21;118.99
61641;HTU21D;62201;49.966;8.342;2023-05-10T00:43:44;13.21;118.99
61641;HTU21D;62201;49.966;8.342;2023-05-10T00:46:09;13.19;118.99
61641;HTU21D;62201;49.966;8.342;2023-05-10T00:48:35;13.19;118.99
61641;HTU21D;62201;49.966;8.342;2023-05-10T00:51:01;13.16;118.99
61641;HTU21D;62201;49.966;8.342;2023-05-10T00:53:27;13.16;118.99
61641;HTU21D;62201;49.966;8.342;2023-05-10T00:55:52;13.16;118.99
61641;HTU21D;62201;49.966;8.342;2023-05-10T00:58:18;13.14;118.99
61641;HTU21D;62201;49.966;8.342;2023-05-10T01:00:46;13.12;118.99
61641;HTU21D;62201;49.966;8.342;2023-05-10T01:03:11;13.11;118.99
61641;HTU21D;62201;49.966;8.342;2023-05-10T01:05:37;13.09;118.99
61641;HTU21D;62201;49.966;8.342;2023-05-10T01:08:03;13.10;118.99
61641;HTU21D;62201;49.966;8.342;2023-05-10T01:10:28;13.10;118.99
61641;HTU21D;62201;49.966;8.342;2023-05-10T01:12:54;13.08;118.99
61641;HTU21D;62201;49.966;8.342;2023-05-10T01:15:20;13.10;118.99
61641;HTU21D;62201;49.966;8.342;2023-05-10T01:17:47;13.10;118.99
61641;HTU21D;62201;49.966;8.342;2023-05-10T01:20:13;13.12;118.99
61641;HTU21D;62201;49.966;8.342;2023-05-10T01:31:34;13.17;118.99
61641;HTU21D;62201;49.966;8.342;2023-05-10T01:34:09;13.17;118.99
61641;HTU21D;62201;49.966;8.342;2023-05-10T01:36:45;13.15;118.99
61641;HTU21D;62201;49.966;8.342;2023-05-10T01:41:49;13.16;118.99
61641;HTU21D;62201;49.966;8.342;2023-05-10T01:44:29;13.15;118.99
61641;HTU21D;62201;49.966;8.342;2023-05-10T01:47:19;13.17;118.99
61641;HTU21D;62201;49.966;8.342;2023-05-10T01:49:50;13.17;118.99
61641;HTU21D;62201;49.966;8.342;2023-05-10T01:52:18;13.15;118.99
61641;HTU21D;62201;49.966;8.342;2023-05-10T01:54:50;13.16;118.99
61641;HTU21D;62201;49.966;8.342;2023-05-10T01:57:20;13.14;118.99
61641;HTU21D;62201;49.966;8.342;2023-05-10T01:59:49;13.12;118.99
61641;HTU21D;62201;49.966;8.342;2023-05-10T02:02:17;13.11;118.99
61641;HTU21D;62201;49.966;8.342;2023-05-10T02:04:44;13.11;118.99
61641;HTU21D;62201;49.966;8.342;2023-05-10T02:07:11;13.10;118.99
61641;HTU21D;62201;49.966;8.342;2023-05-10T02:09:37;13.11;118.99
61641;HTU21D;62201;49.966;8.342;2023-05-10T02:12:05;13.10;118.99
61641;HTU21D;62201;49.966;8.342;2023-05-10T02:14:34;13.11;118.99
61641;HTU21D;62201;49.966;8.342;2023-05-10T02:17:02;13.11;118.99
61641;HTU21D;62201;49.966;8.342;2023-05-10T02:19:28;13.14;118.99
61641;HTU21D;62201;49.966;8.342;2023-05-10T02:21:55;13.10;118.99
61641;HTU21D;62201;49.966;8.342;2023-05-10T02:24:22;13.10;118.99
61641;HTU21D;62201;49.966;8.342;2023-05-10T02:26:49;13.14;118.99
61641;HTU21D;62201;49.966;8.342;2023-05-10T02:29:16;13.16;118.99
61641;HTU21D;62201;49.966;8.342;2023-05-10T02:31:43;13.14;118.99
61641;HTU21D;62201;49.966;8.342;2023-05-10T02:34:10;13.14;118.99
61641;HTU21D;62201;49.966;8.342;2023-05-10T02:36:37;13.14;118.99
61641;HTU21D;62201;49.966;8.342;2023-05-10T02:39:03;13.14;118.99
61641;HTU21D;62201;49.966;8.342;2023-05-10T02:41:32;13.16;118.99
61641;HTU21D;62201;49.966;8.342;2023-05-10T02:44:01;13.15;118.99
61641;HTU21D;62201;49.966;8.342;2023-05-10T02:46:28;13.16;118.99
61641;HTU21D;62201;49.966;8.342;2023-05-10T02:48:53;13.15;118.99
61641;HTU21D;62201;49.966;8.342;2023-05-10T02:51:20;13.16;118.99
61641;HTU21D;62201;49.966;8.342;2023-05-10T02:53:50;13.17;118.99
61641;HTU21D;62201;49.966;8.342;2023-05-10T02:56:28;13.15;118.99
61641;HTU21D;62201;49.966;8.342;2023-05-10T02:58:55;13.16;118.99
61641;HTU21D;62201;49.966;8.342;2023-05-10T03:01:20;13.16;118.99
61641;HTU21D;62201;49.966;8.342;2023-05-10T03:03:46;13.15;118.99
61641;HTU21D;62201;49.966;8.342;2023-05-10T03:06:11;13.14;118.99
61641;HTU21D;62201;49.966;8.342;2023-05-10T03:08:37;13.12;118.99
61641;HTU21D;62201;49.966;8.342;2023-05-10T03:14:29;13.15;118.99
61641;HTU21D;62201;49.966;8.342;2023-05-10T03:17:10;13.19;118.99
61641;HTU21D;62201;49.966;8.342;2023-05-10T03:19:55;13.21;118.99
61641;HTU21D;62201;49.966;8.342;2023-05-10T03:22:32;13.19;118.99
61641;HTU21D;62201;49.966;8.342;2023-05-10T03:25:00;13.19;118.99
61641;HTU21D;62201;49.966;8.342;2023-05-10T03:27:28;13.19;118.99
61641;HTU21D;62201;49.966;8.342;2023-05-10T03:29:55;13.19;118.99
61641;HTU21D;62201;49.966;8.342;2023-05-10T03:32:22;13.19;118.99
61641;HTU21D;62201;49.966;8.342;2023-05-10T03:34:47;13.16;118.99
61641;HTU21D;62201;49.966;8.342;2023-05-10T03:37:13;13.15;118.99
61641;HTU21D;62201;49.966;8.342;2023-05-10T03:39:38;13.14;118.99
61641;HTU21D;62201;49.966;8.342;2023-05-10T03:42:04;13.17;118.99
61641;HTU21D;62201;49.966;8.342;2023-05-10T03:44:29;13.19;118.99
61641;HTU21D;62201;49.966;8.342;2023-05-10T03:46:54;13.19;118.99
61641;HTU21D;62201;49.966;8.342;2023-05-10T03:49:22;13.19;118.99
61641;HTU21D;62201;49.966;8.342;2023-05-10T03:51:47;13.21;118.99
61641;HTU21D;62201;49.966;8.342;2023-05-10T03:54:13;13.23;118.99
61641;HTU21D;62201;49.966;8.342;2023-05-10T03:56:38;13.24;118.99
61641;HTU21D;62201;49.966;8.342;2023-05-10T03:59:03;13.25;118.99
61641;HTU21D;62201;49.966;8.342;2023-05-10T04:01:33;13.25;118.99
61641;HTU21D;62201;49.966;8.342;2023-05-10T04:03:58;13.26;118.99
61641;HTU21D;62201;49.966;8.342;2023-05-10T04:06:24;13.25;118.99
61641;HTU21D;62201;49.966;8.342;2023-05-10T04:08:49;13.29;118.99
61641;HTU21D;62201;49.966;8.342;2023-05-10T04:11:14;13.27;118.99
61641;HTU21D;62201;49.966;8.342;2023-05-10T04:13:40;13.30;118.99
61641;HTU21D;62201;49.966;8.342;2023-05-10T04:16:05;13.29;118.99
61641;HTU21D;62201;49.966;8.342;2023-05-10T04:18:31;13.32;118.99
61641;HTU21D;62201;49.966;8.342;2023-05-10T04:20:57;13.33;118.99
61641;HTU21D;62201;49.966;8.342;2023-05-10T04:23:22;13.33;118.99
61641;HTU21D;62201;49.966;8.342;2023-05-10T04:25:48;13.34;118.99
61641;HTU21D;62201;49.966;8.342;2023-05-10T04:28:13;13.35;118.99
61641;HTU21D;62201;49.966;8.342;2023-05-10T04:30:39;13.34;118.99
61641;HTU21D;62201;49.966;8.342;2023-05-10T04:33:05;13.34;118.99
61641;HTU21D;62201;49.966;8.342;2023-05-10T04:35:31;13.33;118.99
61641;HTU21D;62201;49.966;8.342;2023-05-10T04:37:56;13.38;118.99
61641;HTU21D;62201;49.966;8.342;2023-05-10T04:40:21;13.36;118.99
61641;HTU21D;62201;49.966;8.342;2023-05-10T04:42:47;13.37;118.99
61641;HTU21D;62201;49.966;8.342;2023-05-10T04:45:13;13.41;118.99
61641;HTU21D;62201;49.966;8.342;2023-05-10T04:47:40;13.44;118.99
61641;HTU21D;62201;49.966;8.342;2023-05-10T04:50:06;13.46;118.99
61641;HTU21D;62201;49.966;8.342;2023-05-10T04:52:32;13.46;118.99
61641;HTU21D;62201;49.966;8.342;2023-05-10T04:54:57;13.48;118.99
61641;HTU21D;62201;49.966;8.342;2023-05-10T04:57:23;13.49;118.99
61641;HTU21D;62201;49.966;8.342;2023-05-10T04:59:48;13.50;118.99
61641;HTU21D;62201;49.966;8.342;2023-05-10T05:02:13;13.50;118.99
61641;HTU21D;62201;49.966;8.342;2023-05-10T05:04:39;13.50;118.99
61641;HTU21D;62201;49.966;8.342;2023-05-10T05:07:04;13.50;118.99
61641;HTU21D;62201;49.966;8.342;2023-05-10T05:09:30;13.49;118.99
61641;HTU21D;62201;49.966;8.342;2023-05-10T05:11:57;13.51;118.99
61641;HTU21D;62201;49.966;8.342;2023-05-10T05:14:22;13.48;118.99
61641;HTU21D;62201;49.966;8.342;2023-05-10T05:16:50;13.46;118.99
61641;HTU21D;62201;49.966;8.342;2023-05-10T05:19:15;13.44;118.99
61641;HTU21D;62201;49.966;8.342;2023-05-10T05:21:41;13.41;118.99
61641;HTU21D;62201;49.966;8.342;2023-05-10T05:24:06;13.43;118.99
61641;HTU21D;62201;49.966;8.342;2023-05-10T05:26:31;13.39;118.99
61641;HTU21D;62201;49.966;8.342;2023-05-10T05:28:57;13.39;118.99
61641;HTU21D;62201;49.966;8.342;2023-05-10T05:31:22;13.40;118.99
61641;HTU21D;62201;49.966;8.342;2023-05-10T05:33:48;13.43;118.99
61641;HTU21D;62201;49.966;8.342;2023-05-10T05:36:13;13.43;118.99
61641;HTU21D;62201;49.966;8.342;2023-05-10T05:38:38;13.44;118.99
61641;HTU21D;62201;49.966;8.342;2023-05-10T05:41:04;13.47;118.99
61641;HTU21D;62201;49.966;8.342;2023-05-10T05:43:29;13.55;118.99
61641;HTU21D;62201;49.966;8.342;2023-05-10T05:45:55;13.62;118.99
61641;HTU21D;62201;49.966;8.342;2023-05-10T05:48:22;13.67;118.99
61641;HTU21D;62201;49.966;8.342;2023-05-10T05:50:48;13.69;118.99
61641;HTU21D;62201;49.966;8.342;2023-05-10T05:53:13;13.75;118.99
61641;HTU21D;62201;49.966;8.342;2023-05-10T05:55:39;13.82;118.99
61641;HTU21D;62201;49.966;8.342;2023-05-10T05:58:04;13.93;118.99
61641;HTU21D;62201;49.966;8.342;2023-05-10T06:00:29;13.98;118.99
61641;HTU21D;62201;49.966;8.342;2023-05-10T06:02:55;14.05;118.99
61641;HTU21D;62201;49.966;8.342;2023-05-10T06:05:20;14.05;118.99
61641;HTU21D;62201;49.966;8.342;2023-05-10T06:07:46;14.05;118.99
61641;HTU21D;62201;49.966;8.342;2023-05-10T06:10:12;14.11;118.99
61641;HTU21D;62201;49.966;8.342;2023-05-10T06:12:37;14.18;118.99
61641;HTU21D;62201;49.966;8.342;2023-05-10T06:15:03;14.25;118.99
61641;HTU21D;62201;49.966;8.342;2023-05-10T06:17:29;14.32;118.99
61641;HTU21D;62201;49.966;8.342;2023-05-10T06:19:54;14.38;118.99
61641;HTU21D;62201;49.966;8.342;2023-05-10T06:22:20;14.34;118.99
61641;HTU21D;62201;49.966;8.342;2023-05-10T06:24:47;14.30;118.99
61641;HTU21D;62201;49.966;8.342;2023-05-10T06:27:13;14.24;118.99
61641;HTU21D;62201;49.966;8.342;2023-05-10T06:29:38;14.28;118.99
61641;HTU21D;62201;49.966;8.342;2023-05-10T06:32:04;14.37;118.99
61641;HTU21D;62201;49.966;8.342;2023-05-10T06:34:29;14.50;118.99
61641;HTU21D;62201;49.966;8.342;2023-05-10T06:36:54;14.63;118.99
61641;HTU21D;62201;49.966;8.342;2023-05-10T06:39:20;14.83;118.99
61641;HTU21D;62201;49.966;8.342;2023-05-10T06:41:45;15.11;118.99
61641;HTU21D;62201;49.966;8.342;2023-05-10T06:44:11;15.14;112.56
61641;HTU21D;62201;49.966;8.342;2023-05-10T06:46:36;15.22;113.83
61641;HTU21D;62201;49.966;8.342;2023-05-10T06:49:01;15.18;110.75
61641;HTU21D;62201;49.966;8.342;2023-05-10T06:51:27;15.24;115.39
61641;HTU21D;62201;49.966;8.342;2023-05-10T06:53:52;15.32;114.19
61641;HTU21D;62201;49.966;8.342;2023-05-10T06:56:18;15.37;112.91
61641;HTU21D;62201;49.966;8.342;2023-05-10T06:58:46;15.37;110.28
61641;HTU21D;62201;49.966;8.342;2023-05-10T07:01:12;15.44;107.90
61641;HTU21D;62201;49.966;8.342;2023-05-10T07:03:37;15.47;106.22
61641;HTU21D;62201;49.966;8.342;2023-05-10T07:06:03;15.59;106.78
61641;HTU21D;62201;49.966;8.342;2023-05-10T07:08:31;15.72;104.96
61641;HTU21D;62201;49.966;8.342;2023-05-10T07:11:04;15.74;98.02
61641;HTU21D;62201;49.966;8.342;2023-05-10T07:13:30;15.93;97.35
61641;HTU21D;62201;49.966;8.342;2023-05-10T07:15:56;16.22;100.48
61641;HTU21D;62201;49.966;8.342;2023-05-10T07:18:21;16.40;96.57
61641;HTU21D;62201;49.966;8.342;2023-05-10T07:20:46;16.29;91.50
61641;HTU21D;62201;49.966;8.342;2023-05-10T07:23:12;16.41;92.10
61641;HTU21D;62201;49.966;8.342;2023-05-10T07:25:37;16.52;88.64
61641;HTU21D;62201;49.966;8.342;2023-05-10T07:28:03;16.65;90.96
61641;HTU21D;62201;49.966;8.342;2023-05-10T07:30:28;16.66;91.40
61641;HTU21D;62201;49.966;8.342;2023-05-10T07:32:53;16.71;89.71
61641;HTU21D;62201;49.966;8.342;2023-05-10T07:35:19;16.72;91.06
61641;HTU21D;62201;49.966;8.342;2023-05-10T07:37:44;16.76;90.08
61641;HTU21D;62201;49.966;8.342;2023-05-10T07:40:10;16.70;86.58
61641;HTU21D;62201;49.966;8.342;2023-05-10T07:42:35;16.55;83.91
61641;HTU21D;62201;49.966;8.342;2023-05-10T07:45:01;16.47;82.42
61641;HTU21D;62201;49.966;8.342;2023-05-10T07:47:27;16.37;83.09
61641;HTU21D;62201;49.966;8.342;2023-05-10T07:49:52;16.43;85.61
61641;HTU21D;62201;49.966;8.342;2023-05-10T07:52:17;16.59;85.29
61641;HTU21D;62201;49.966;8.342;2023-05-10T07:54:43;16.90;84.22
61641;HTU21D;62201;49.966;8.342;2023-05-10T07:57:08;17.03;82.46
61641;HTU21D;62201;49.966;8.342;2023-05-10T07:59:33;17.07;83.59
61641;HTU21D;62201;49.966;8.342;2023-05-10T08:01:59;17.16;82.90
61641;HTU21D;62201;49.966;8.342;2023-05-10T08:04:24;17.07;82.92
61641;HTU21D;62201;49.966;8.342;2023-05-10T08:06:50;17.05;83.06
61641;HTU21D;62201;49.966;8.342;2023-05-10T08:09:16;16.89;85.67
61641;HTU21D;62201;49.966;8.342;2023-05-10T08:11:41;16.75;84.97
61641;HTU21D;62201;49.966;8.342;2023-05-10T08:14:06;16.58;87.40
61641;HTU21D;62201;49.966;8.342;2023-05-10T08:16:32;16.37;86.51
61641;HTU21D;62201;49.966;8.342;2023-05-10T08:18:57;16.25;87.29
61641;HTU21D;62201;49.966;8.342;2023-05-10T08:21:23;16.14;90.80
61641;HTU21D;62201;49.966;8.342;2023-05-10T08:23:48;15.76;97.23
61641;HTU21D;62201;49.966;8.342;2023-05-10T08:26:14;15.40;103.27
61641;HTU21D;62201;49.966;8.342;2023-05-10T08:28:39;15.24;100.92
61641;HTU21D;62201;49.966;8.342;2023-05-10T08:31:05;15.15;106.08
61641;HTU21D;62201;49.966;8.342;2023-05-10T08:33:30;15.11;109.65
61641;HTU21D;62201;49.966;8.342;2023-05-10T08:35:56;15.15;110.17
61641;HTU21D;62201;49.966;8.342;2023-05-10T08:38:21;15.15;110.34
61641;HTU21D;62201;49.966;8.342;2023-05-10T08:40:48;15.23;110.10
61641;HTU21D;62201;49.966;8.342;2023-05-10T08:43:14;15.29;113.90
61641;HTU21D;62201;49.966;8.342;2023-05-10T08:45:43;15.34;111.45
61641;HTU21D;62201;49.966;8.342;2023-05-10T08:48:10;15.55;112.04
61641;HTU21D;62201;49.966;8.342;2023-05-10T08:50:37;15.72;109.64
61641;HTU21D;62201;49.966;8.342;2023-05-10T08:53:06;15.96;110.33
61641;HTU21D;62201;49.966;8.342;2023-05-10T08:55:32;16.22;105.50
61641;HTU21D;62201;49.966;8.342;2023-05-10T08:58:00;16.54;109.01
61641;HTU21D;62201;49.966;8.342;2023-05-10T09:00:26;16.65;106.06
61641;HTU21D;62201;49.966;8.342;2023-05-10T09:02:52;16.77;106.17
61641;HTU21D;62201;49.966;8.342;2023-05-10T09:05:18;16.69;108.43
61641;HTU21D;62201;49.966;8.342;2023-05-10T09:07:44;16.75;106.82
61641;HTU21D;62201;49.966;8.342;2023-05-10T09:10:10;16.63;98.10
61641;HTU21D;62201;49.966;8.342;2023-05-10T09:12:36;16.50;97.60
61641;HTU21D;62201;49.966;8.342;2023-05-10T09:15:03;16.34;99.51
61641;HTU21D;62201;49.966;8.342;2023-05-10T09:17:30;16.22;99.08
61641;HTU21D;62201;49.966;8.342;2023-05-10T09:20:03;16.17;100.96
61641;HTU21D;62201;49.966;8.342;2023-05-10T09:22:33;16.25;101.54
61641;HTU21D;62201;49.966;8.342;2023-05-10T09:27:35;16.49;96.23
61641;HTU21D;62201;49.966;8.342;2023-05-10T09:30:01;16.51;94.88
61641;HTU21D;62201;49.966;8.342;2023-05-10T09:32:46;16.64;96.75
61641;HTU21D;62201;49.966;8.342;2023-05-10T09:35:20;16.89;84.81
61641;HTU21D;62201;49.966;8.342;2023-05-10T09:37:50;16.94;91.05
61641;HTU21D;62201;49.966;8.342;2023-05-10T09:40:17;17.06;86.67
61641;HTU21D;62201;49.966;8.342;2023-05-10T09:43:01;17.04;87.93
61641;HTU21D;62201;49.966;8.342;2023-05-10T09:45:28;16.90;90.46
61641;HTU21D;62201;49.966;8.342;2023-05-10T09:47:55;16.89;91.27
61641;HTU21D;62201;49.966;8.342;2023-05-10T09:50:20;16.82;88.47
61641;HTU21D;62201;49.966;8.342;2023-05-10T09:55:24;16.98;85.07
61641;HTU21D;62201;49.966;8.342;2023-05-10T09:57:59;17.75;85.55
61641;HTU21D;62201;49.966;8.342;2023-05-10T10:00:26;18.35;77.51
61641;HTU21D;62201;49.966;8.342;2023-05-10T10:02:57;19.05;76.50
61641;HTU21D;62201;49.966;8.342;2023-05-10T10:05:28;19.17;71.61
61641;HTU21D;62201;49.966;8.342;2023-05-10T10:07:54;18.99;72.48
61641;HTU21D;62201;49.966;8.342;2023-05-10T10:10:20;18.79;69.69
61641;HTU21D;62201;49.966;8.342;2023-05-10T10:12:46;18.74;64.33
61641;HTU21D;62201;49.966;8.342;2023-05-10T10:15:12;19.12;61.56
61641;HTU21D;62201;49.966;8.342;2023-05-10T10:17:37;19.33;58.90
61641;HTU21D;62201;49.966;8.342;2023-05-10T10:20:06;19.40;61.35
61641;HTU21D;62201;49.966;8.342;2023-05-10T10:22:32;19.59;61.34
61641;HTU21D;62201;49.966;8.342;2023-05-10T10:24:58;19.65;60.14
61641;HTU21D;62201;49.966;8.342;2023-05-10T10:27:28;20.35;56.31
61641;HTU21D;62201;49.966;8.342;2023-05-10T10:30:02;20.35;55.94
61641;HTU21D;62201;49.966;8.342;2023-05-10T10:35:39;19.65;57.72
61641;HTU21D;62201;49.966;8.342;2023-05-10T10:38:07;19.18;59.80
61641;HTU21D;62201;49.966;8.342;2023-05-10T10:40:33;18.94;60.18
61641;HTU21D;62201;49.966;8.342;2023-05-10T10:43:22;18.81;61.92
61641;HTU21D;62201;49.966;8.342;2023-05-10T10:46:14;18.54;60.72
61641;HTU21D;62201;49.966;8.342;2023-05-10T10:48:51;18.32;62.79
61641;HTU21D;62201;49.966;8.342;2023-05-10T10:51:36;18.02;63.23
61641;HTU21D;62201;49.966;8.342;2023-05-10T10:54:09;17.91;65.18
61641;HTU21D;62201;49.966;8.342;2023-05-10T10:56:35;17.89;65.91
61641;HTU21D;62201;49.966;8.342;2023-05-10T10:59:01;17.54;67.14
61641;HTU21D;62201;49.966;8.342;2023-05-10T11:01:32;17.45;67.11
61641;HTU21D;62201;49.966;8.342;2023-05-10T11:06:34;17.35;66.87
61641;HTU21D;62201;49.966;8.342;2023-05-10T11:09:05;17.50;66.27
61641;HTU21D;62201;49.966;8.342;2023-05-10T11:11:31;17.70;66.09
61641;HTU21D;62201;49.966;8.342;2023-05-10T11:14:06;17.75;64.80
61641;HTU21D;62201;49.966;8.342;2023-05-10T11:16:44;17.82;63.02
61641;HTU21D;62201;49.966;8.342;2023-05-10T11:19:16;17.94;63.10
61641;HTU21D;62201;49.966;8.342;2023-05-10T11:21:51;18.29;61.48
61641;HTU21D;62201;49.966;8.342;2023-05-10T11:24:19;18.69;61.17
61641;HTU21D;62201;49.966;8.342;2023-05-10T11:26:45;18.76;59.09
61641;HTU21D;62201;49.966;8.342;2023-05-10T11:29:12;18.71;58.69
61641;HTU21D;62201;49.966;8.342;2023-05-10T11:31:44;18.99;59.02
61641;HTU21D;62201;49.966;8.342;2023-05-10T11:34:10;19.17;57.75
61641;HTU21D;62201;49.966;8.342;2023-05-10T11:36:36;19.32;58.18
61641;HTU21D;62201;49.966;8.342;2023-05-10T11:39:03;19.73;58.22
61641;HTU21D;62201;49.966;8.342;2023-05-10T11:41:29;19.77;55.99
61641;HTU21D;62201;49.966;8.342;2023-05-10T11:43:56;19.91;56.94
61641;HTU21D;62201;49.966;8.342;2023-05-10T11:46:24;20.32;55.58
61641;HTU21D;62201;49.966;8.342;2023-05-10T11:48:51;20.37;53.02
61641;HTU21D;62201;49.966;8.342;2023-05-10T11:51:21;20.65;51.53
61641;HTU21D;62201;49.966;8.342;2023-05-10T11:53:47;20.34;51.57
61641;HTU21D;62201;49.966;8.342;2023-05-10T11:56:12;20.27;51.77
61641;HTU21D;62201;49.966;8.342;2023-05-10T11:58:39;20.10;52.05
61641;HTU21D;62201;49.966;8.342;2023-05-10T12:01:05;20.17;52.53
61641;HTU21D;62201;49.966;8.342;2023-05-10T12:03:31;20.68;51.59
61641;HTU21D;62201;49.966;8.342;2023-05-10T12:05:58;20.79;51.81
61641;HTU21D;62201;49.966;8.342;2023-05-10T12:08:25;20.25;50.82
61641;HTU21D;62201;49.966;8.342;2023-05-10T12:10:53;19.88;52.70
61641;HTU21D;62201;49.966;8.342;2023-05-10T12:13:28;19.92;54.04
61641;HTU21D;62201;49.966;8.342;2023-05-10T12:15:57;19.60;54.82
61641;HTU21D;62201;49.966;8.342;2023-05-10T12:18:23;19.52;55.55
61641;HTU21D;62201;49.966;8.342;2023-05-10T12:20:52;19.59;55.95
61641;HTU21D;62201;49.966;8.342;2023-05-10T12:23:19;19.53;56.53
61641;HTU21D;62201;49.966;8.342;2023-05-10T12:25:45;19.44;57.05
61641;HTU21D;62201;49.966;8.342;2023-05-10T12:28:10;19.42;56.98
61641;HTU21D;62201;49.966;8.342;2023-05-10T12:30:37;19.05;56.61
61641;HTU21D;62201;49.966;8.342;2023-05-10T12:33:13;18.81;57.16
61641;HTU21D;62201;49.966;8.342;2023-05-10T12:35:45;18.93;56.44
61641;HTU21D;62201;49.966;8.342;2023-05-10T12:41:04;19.05;56.19
61641;HTU21D;62201;49.966;8.342;2023-05-10T12:43:31;18.98;56.13
61641;HTU21D;62201;49.966;8.342;2023-05-10T12:45:56;19.08;56.77
61641;HTU21D;62201;49.966;8.342;2023-05-10T12:48:22;18.84;56.17
61641;HTU21D;62201;49.966;8.342;2023-05-10T12:50:48;18.59;55.05
61641;HTU21D;62201;49.966;8.342;2023-05-10T12:53:14;18.53;56.67
61641;HTU21D;62201;49.966;8.342;2023-05-10T12:55:41;18.54;57.04
61641;HTU21D;62201;49.966;8.342;2023-05-10T12:58:07;18.34;56.62
61641;HTU21D;62201;49.966;8.342;2023-05-10T13:00:32;18.40;57.02
61641;HTU21D;62201;49.966;8.342;2023-05-10T13:02:57;18.26;57.87
61641;HTU21D;62201;49.966;8.342;2023-05-10T13:05:23;18.51;58.02
61641;HTU21D;62201;49.966;8.342;2023-05-10T13:07:48;18.64;58.07
61641;HTU21D;62201;49.966;8.342;2023-05-10T13:10:13;18.95;57.32
61641;HTU21D;62201;49.966;8.342;2023-05-10T13:12:39;18.92;56.36
61641;HTU21D;62201;49.966;8.342;2023-05-10T13:15:05;18.97;54.65
61641;HTU21D;62201;49.966;8.342;2023-05-10T13:17:30;19.33;55.19
61641;HTU21D;62201;49.966;8.342;2023-05-10T13:19:56;20.10;53.66
61641;HTU21D;62201;49.966;8.342;2023-05-10T13:22:21;20.56;51.76
61641;HTU21D;62201;49.966;8.342;2023-05-10T13:24:47;20.63;51.85
61641;HTU21D;62201;49.966;8.342;2023-05-10T13:27:12;20.37;53.91
61641;HTU21D;62201;49.966;8.342;2023-05-10T13:29:37;20.19;53.53
61641;HTU21D;62201;49.966;8.342;2023-05-10T13:32:03;20.06;54.50
61641;HTU21D;62201;49.966;8.342;2023-05-10T13:34:28;19.71;54.19
61641;HTU21D;62201;49.966;8.342;2023-05-10T13:36:54;20.27;53.95
61641;HTU21D;62201;49.966;8.342;2023-05-10T13:39:20;20.46;52.69
61641;HTU21D;62201;49.966;8.342;2023-05-10T13:41:46;20.49;52.20
61641;HTU21D;62201;49.966;8.342;2023-05-10T13:44:14;20.79;51.85
61641;HTU21D;62201;49.966;8.342;2023-05-10T13:46:40;21.08;51.37
61641;HTU21D;62201;49.966;8.342;2023-05-10T13:49:08;21.17;49.73
61641;HTU21D;62201;49.966;8.342;2023-05-10T13:51:34;21.06;49.92
61641;HTU21D;62201;49.966;8.342;2023-05-10T13:53:59;21.07;50.13
61641;HTU21D;62201;49.966;8.342;2023-05-10T13:56:25;20.76;50.32
61641;HTU21D;62201;49.966;8.342;2023-05-10T13:58:50;20.40;51.66
61641;HTU21D;62201;49.966;8.342;2023-05-10T14:01:16;20.33;52.56
61641;HTU21D;62201;49.966;8.342;2023-05-10T14:03:41;20.31;52.80
61641;HTU21D;62201;49.966;8.342;2023-05-10T14:06:07;20.41;52.94
61641;HTU21D;62201;49.966;8.342;2023-05-10T14:08:33;20.57;51.28
61641;HTU21D;62201;49.966;8.342;2023-05-10T14:10:59;20.47;52.31
61641;HTU21D;62201;49.966;8.342;2023-05-10T14:13:25;20.44;52.72
61641;HTU21D;62201;49.966;8.342;2023-05-10T14:15:50;20.48;53.67
61641;HTU21D;62201;49.966;8.342;2023-05-10T14:18:16;20.85;52.65
61641;HTU21D;62201;49.966;8.342;2023-05-10T14:20:41;20.90;51.90
61641;HTU21D;62201;49.966;8.342;2023-05-10T14:23:07;21.23;51.35
61641;HTU21D;62201;49.966;8.342;2023-05-10T14:25:32;21.30;50.43
61641;HTU21D;62201;49.966;8.342;2023-05-10T14:27:58;20.78;52.09
61641;HTU21D;62201;49.966;8.342;2023-05-10T14:30:23;20.72;51.72
61641;HTU21D;62201;49.966;8.342;2023-05-10T14:32:49;20.59;51.90
61641;HTU21D;62201;49.966;8.342;2023-05-10T14:35:14;20.42;50.61
61641;HTU21D;62201;49.966;8.342;2023-05-10T14:37:40;20.64;50.15
61641;HTU21D;62201;49.966;8.342;2023-05-10T14:40:06;21.11;49.60
61641;HTU21D;62201;49.966;8.342;2023-05-10T14:42:31;21.40;49.37
61641;HTU21D;62201;49.966;8.342;2023-05-10T14:44:57;21.21;48.65
61641;HTU21D;62201;49.966;8.342;2023-05-10T14:47:22;21.01;50.69
61641;HTU21D;62201;49.966;8.342;2023-05-10T14:49:47;21.28;49.47
61641;HTU21D;62201;49.966;8.342;2023-05-10T14:52:13;21.19;49.81
61641;HTU21D;62201;49.966;8.342;2023-05-10T14:54:39;20.83;48.73
61641;HTU21D;62201;49.966;8.342;2023-05-10T14:57:05;20.66;50.34
61641;HTU21D;62201;49.966;8.342;2023-05-10T14:59:31;20.44;49.31
61641;HTU21D;62201;49.966;8.342;2023-05-10T15:01:57;20.39;50.24
61641;HTU21D;62201;49.966;8.342;2023-05-10T15:04:22;20.42;49.91
61641;HTU21D;62201;49.966;8.342;2023-05-10T15:06:47;20.11;51.04
61641;HTU21D;62201;49.966;8.342;2023-05-10T15:09:13;19.99;50.92
61641;HTU21D;62201;49.966;8.342;2023-05-10T15:11:38;19.82;51.27
61641;HTU21D;62201;49.966;8.342;2023-05-10T15:14:04;19.83;52.40
61641;HTU21D;62201;49.966;8.342;2023-05-10T15:16:29;19.77;52.56
61641;HTU21D;62201;49.966;8.342;2023-05-10T15:18:54;19.81;52.83
61641;HTU21D;62201;49.966;8.342;2023-05-10T15:21:20;19.86;51.99
61641;HTU21D;62201;49.966;8.342;2023-05-10T15:23:45;19.69;52.66
61641;HTU21D;62201;49.966;8.342;2023-05-10T15:26:11;19.73;52.05
61641;HTU21D;62201;49.966;8.342;2023-05-10T15:28:36;19.69;52.33
61641;HTU21D;62201;49.966;8.342;2023-05-10T15:31:01;19.85;51.96
61641;HTU21D;62201;49.966;8.342;2023-05-10T15:33:28;19.97;51.63